createdAt,value
2023-05-18T00:04:38.622Z,3.60
2023-05-18T00:09:37.535Z,3.78
2023-05-18T00:14:33.949Z,3.13
2023-05-18T00:19:30.454Z,4.05
2023-05-18T00:24:26.816Z,3.45
2023-05-18T00:29:23.308Z,4.10
2023-05-18T00:34:19.707Z,2.80
2023-05-18T00:39:16.403Z,3.58
2023-05-18T00:44:12.840Z,4.10
2023-05-18T00:49:09.409Z,3.05
2023-05-18T00:54:06.488Z,3.35
2023-05-18T00:59:03.458Z,3.40
2023-05-18T01:04:03.477Z,4.22
2023-05-18T01:09:04.472Z,3.90
2023-05-18T01:14:17.858Z,4.18
2023-05-18T01:19:35.912Z,3.35
2023-05-18T01:24:42.683Z,3.00
2023-05-18T01:29:39.825Z,4.93
2023-05-18T01:34:36.347Z,3.80
2023-05-18T01:39:32.748Z,3.72
2023-05-18T01:44:36.485Z,3.90
2023-05-18T01:49:51.520Z,3.30
2023-05-18T01:54:52.390Z,3.70
2023-05-18T01:59:49.884Z,3.95
2023-05-18T02:04:46.366Z,3.58
2023-05-18T02:09:44.291Z,3.92
2023-05-18T02:14:40.901Z,4.00
2023-05-18T02:19:40.141Z,4.25
2023-05-18T02:24:36.536Z,4.47
2023-05-18T02:29:32.944Z,4.18
2023-05-18T02:34:32.961Z,4.25
2023-05-18T02:39:30.014Z,4.43
2023-05-18T02:44:26.595Z,4.53
2023-05-18T02:49:23.169Z,3.95
2023-05-18T02:54:19.625Z,3.85
2023-05-18T02:59:16.225Z,4.00
2023-05-18T03:04:13.972Z,3.88
2023-05-18T03:09:10.764Z,5.63
2023-05-18T03:14:07.206Z,4.38
2023-05-18T03:19:03.594Z,3.63
2023-05-18T03:24:00.367Z,4.35
2023-05-18T03:28:57.715Z,4.75
2023-05-18T03:33:54.120Z,4.40
2023-05-18T03:38:50.532Z,3.53
2023-05-18T03:43:46.918Z,4.32
2023-05-18T03:48:43.293Z,3.60
2023-05-18T03:53:39.739Z,3.63
2023-05-18T03:58:36.151Z,3.30
2023-05-18T04:03:34.793Z,3.22
2023-05-18T04:13:30.997Z,3.53
2023-05-18T04:18:30.123Z,3.53
2023-05-18T04:23:26.668Z,3.22
2023-05-18T04:28:23.072Z,2.83
2023-05-18T04:33:20.498Z,3.03
2023-05-18T04:38:16.909Z,3.08
2023-05-18T04:43:13.269Z,3.20
2023-05-18T04:48:10.819Z,2.63
2023-05-18T04:53:09.039Z,2.28
2023-05-18T04:58:06.012Z,2.70
2023-05-18T05:03:02.565Z,1.80
2023-05-18T05:07:59.039Z,2.45
2023-05-18T05:12:55.522Z,2.33
2023-05-18T05:17:52.048Z,2.53
2023-05-18T05:22:48.543Z,3.22
2023-05-18T05:27:44.933Z,2.10
2023-05-18T05:32:41.401Z,3.08
2023-05-18T05:37:37.831Z,2.78
2023-05-18T05:42:34.721Z,2.28
2023-05-18T05:47:31.359Z,2.58
2023-05-18T05:52:28.904Z,1.67
2023-05-18T05:57:25.786Z,1.57
2023-05-18T06:02:22.254Z,1.95
2023-05-18T06:07:18.689Z,1.92
2023-05-18T06:12:15.096Z,1.65
2023-05-18T06:17:11.591Z,1.83
2023-05-18T06:22:07.998Z,2.13
2023-05-18T06:27:04.734Z,2.45
2023-05-18T06:32:01.688Z,1.70
2023-05-18T06:36:58.991Z,1.50
2023-05-18T06:41:55.446Z,2.20
2023-05-18T06:46:51.943Z,2.00
2023-05-18T06:51:48.540Z,2.17
2023-05-18T06:56:44.969Z,2.05
2023-05-18T07:01:41.476Z,2.10
2023-05-18T07:06:38.320Z,1.67
2023-05-18T07:11:34.867Z,1.73
2023-05-18T07:16:31.874Z,2.05
2023-05-18T07:21:28.714Z,1.67
2023-05-18T07:26:25.159Z,1.95
2023-05-18T07:31:22.229Z,1.95
2023-05-18T07:36:18.710Z,1.42
2023-05-18T07:41:15.111Z,1.75
2023-05-18T07:46:11.562Z,2.60
2023-05-18T07:51:08.252Z,1.45
2023-05-18T07:56:05.808Z,1.55
2023-05-18T08:01:02.358Z,2.00
2023-05-18T08:06:00.189Z,1.85
2023-05-18T08:10:57.241Z,1.80
2023-05-18T08:16:09.800Z,2.15
2023-05-18T08:21:10.179Z,2.47
2023-05-18T08:26:09.022Z,2.40
2023-05-18T08:31:06.202Z,1.52
2023-05-18T08:36:02.657Z,1.65
2023-05-18T08:41:08.625Z,1.35
2023-05-18T08:46:10.954Z,1.90
2023-05-18T08:51:09.446Z,2.80
2023-05-18T08:56:06.126Z,1.60
2023-05-18T09:01:04.333Z,3.47
2023-05-18T09:06:02.977Z,1.58
2023-05-18T09:11:02.326Z,1.55
2023-05-18T09:15:59.214Z,1.63
2023-05-18T09:20:56.041Z,1.77
2023-05-18T09:25:52.983Z,2.40
2023-05-18T09:30:49.369Z,1.65
2023-05-18T09:35:47.058Z,2.00
2023-05-18T09:40:46.734Z,1.80
2023-05-18T09:45:45.232Z,1.85
2023-05-18T09:50:43.869Z,1.83
2023-05-18T09:55:48.944Z,1.95
2023-05-18T10:00:53.970Z,1.88
2023-05-18T10:05:51.799Z,2.22
2023-05-18T10:10:49.711Z,1.67
2023-05-18T10:15:57.038Z,1.60
2023-05-18T10:21:00.008Z,1.70
2023-05-18T10:25:57.443Z,1.90
2023-05-18T10:30:55.682Z,2.50
2023-05-18T10:35:54.609Z,2.05
2023-05-18T10:40:53.021Z,2.58
2023-05-18T10:45:58.588Z,2.22
2023-05-18T10:50:57.669Z,2.10
2023-05-18T10:55:54.518Z,2.20
2023-05-18T11:00:54.070Z,3.25
2023-05-18T11:05:52.321Z,2.55
2023-05-18T11:15:51.122Z,2.05
2023-05-18T11:20:48.597Z,2.47
2023-05-18T11:25:45.322Z,2.17
2023-05-18T11:30:41.943Z,2.80
2023-05-18T11:36:07.147Z,2.67
2023-05-18T11:41:03.568Z,2.10
2023-05-18T11:45:59.939Z,2.78
2023-05-18T11:50:56.687Z,1.90
2023-05-18T11:55:59.530Z,2.03
2023-05-18T12:00:57.626Z,1.95
2023-05-18T12:10:55.198Z,1.95
2023-05-18T12:15:51.798Z,2.15
2023-05-18T12:20:49.812Z,2.08
2023-05-18T12:25:46.480Z,1.77
2023-05-18T12:30:44.024Z,3.25
2023-05-18T12:35:40.482Z,1.97
2023-05-18T12:40:46.408Z,2.20
2023-05-18T12:45:44.530Z,1.80
2023-05-18T12:55:44.329Z,1.95
2023-05-18T13:00:44.444Z,1.73
2023-05-18T13:05:42.332Z,2.15
2023-05-18T13:10:38.740Z,2.35
2023-05-18T13:15:39.228Z,1.83
2023-05-18T13:20:41.671Z,1.50
2023-05-18T13:25:39.008Z,1.60
2023-05-18T13:30:35.508Z,1.80
2023-05-18T13:35:32.336Z,1.88
2023-05-18T13:40:29.226Z,2.15
2023-05-18T13:45:25.839Z,1.83
2023-05-18T13:50:23.185Z,2.20
2023-05-18T13:55:19.811Z,1.92
2023-05-18T14:00:17.314Z,1.45
2023-05-18T14:05:14.498Z,1.65
2023-05-18T14:10:12.495Z,2.07
2023-05-18T14:20:06.662Z,1.80
2023-05-18T14:25:03.265Z,1.55
2023-05-18T14:29:59.709Z,1.98
2023-05-18T14:34:57.895Z,1.80
2023-05-18T14:39:54.911Z,1.55
2023-05-18T14:44:51.602Z,2.63
2023-05-18T14:49:48.020Z,1.90
2023-05-18T14:54:44.450Z,1.60
2023-05-18T14:59:41.040Z,1.70
2023-05-18T15:04:37.457Z,1.95
2023-05-18T15:09:33.860Z,1.90
2023-05-18T15:14:30.348Z,1.70
2023-05-18T15:19:26.864Z,1.80
2023-05-18T15:24:24.827Z,1.90
2023-05-18T15:29:21.995Z,1.95
2023-05-18T15:34:18.423Z,1.83
2023-05-18T15:39:15.403Z,2.00
2023-05-18T15:44:11.806Z,1.87
2023-05-18T15:49:08.395Z,1.92
2023-05-18T15:54:04.812Z,1.88
2023-05-18T15:59:01.262Z,1.83
2023-05-18T16:03:57.760Z,2.13
2023-05-18T16:08:55.947Z,2.75
2023-05-18T16:13:56.757Z,1.40
2023-05-18T16:18:53.957Z,1.90
2023-05-18T16:23:50.389Z,1.73
2023-05-18T16:28:46.950Z,1.90
2023-05-18T16:33:43.377Z,1.73
2023-05-18T16:38:39.864Z,1.55
2023-05-18T16:43:36.454Z,1.70
2023-05-18T16:48:32.812Z,1.70
2023-05-18T16:59:46.670Z,1.75
2023-05-18T17:04:45.916Z,1.63
2023-05-18T17:09:42.825Z,2.28
2023-05-18T17:14:39.311Z,2.30
2023-05-18T17:19:36.117Z,2.08
2023-05-18T17:24:32.492Z,1.92
2023-05-18T17:29:29.290Z,1.48
2023-05-18T17:34:30.659Z,1.77
2023-05-18T17:39:27.039Z,1.55
2023-05-18T17:44:23.372Z,1.67
2023-05-18T17:49:19.711Z,1.50
2023-05-18T17:54:16.270Z,1.80
2023-05-18T17:59:13.465Z,1.50
2023-05-18T18:04:09.929Z,2.13
2023-05-18T18:09:08.927Z,1.83
2023-05-18T18:14:06.032Z,1.35
2023-05-18T18:19:02.812Z,1.80
2023-05-18T18:23:59.451Z,1.53
2023-05-18T18:28:55.979Z,1.83
2023-05-18T18:33:52.398Z,1.67
2023-05-18T18:38:49.054Z,1.30
2023-05-18T18:43:45.638Z,1.80
2023-05-18T18:48:42.011Z,1.88
2023-05-18T18:53:38.356Z,1.60
2023-05-18T18:58:34.671Z,1.20
2023-05-18T19:03:32.866Z,1.92
2023-05-18T19:13:25.709Z,2.25
2023-05-18T19:18:22.131Z,2.20
2023-05-18T19:23:18.572Z,1.60
2023-05-18T19:28:15.030Z,1.48
2023-05-18T19:33:11.450Z,1.90
2023-05-18T19:38:07.927Z,1.92
2023-05-18T19:43:04.344Z,1.73
2023-05-18T19:48:00.746Z,1.60
2023-05-18T19:52:57.169Z,1.40
2023-05-18T19:57:53.803Z,1.77
2023-05-18T20:02:50.256Z,1.40
2023-05-18T20:07:46.685Z,2.33
2023-05-18T20:12:43.172Z,1.77
2023-05-18T20:17:39.664Z,2.00
2023-05-18T20:22:36.088Z,1.75
2023-05-18T20:27:32.593Z,1.42
2023-05-18T20:32:29.206Z,1.70
2023-05-18T20:37:28.538Z,1.67
2023-05-18T20:42:31.039Z,2.60
2023-05-18T20:47:29.650Z,1.80
2023-05-18T20:52:26.453Z,1.58
2023-05-18T20:57:22.978Z,1.50
2023-05-18T21:02:19.696Z,1.50
2023-05-18T21:07:16.553Z,1.70
2023-05-18T21:12:12.938Z,1.80
2023-05-18T21:17:09.451Z,2.38
2023-05-18T21:22:06.014Z,1.83
2023-05-18T21:27:03.312Z,1.95
2023-05-18T21:31:59.857Z,1.60
2023-05-18T21:36:56.536Z,1.50
2023-05-18T21:41:52.938Z,1.65
2023-05-18T21:46:54.829Z,2.45
2023-05-18T21:51:51.618Z,2.30
2023-05-18T21:56:48.054Z,2.15
2023-05-18T22:01:44.537Z,3.10
2023-05-18T22:06:41.100Z,2.00
2023-05-18T22:11:37.587Z,1.75
2023-05-18T22:16:34.035Z,2.28
2023-05-18T22:21:30.992Z,2.20
2023-05-18T22:26:27.480Z,2.58
2023-05-18T22:31:23.913Z,2.08
2023-05-18T22:36:21.766Z,2.17
2023-05-18T22:41:18.761Z,2.55
2023-05-18T22:46:15.243Z,2.30
2023-05-18T22:51:11.670Z,2.38
2023-05-18T22:56:08.147Z,2.40
2023-05-18T23:01:04.531Z,2.90
2023-05-18T23:06:03.095Z,2.35
2023-05-18T23:16:01.009Z,2.40
2023-05-18T23:20:58.712Z,2.75
2023-05-18T23:25:55.451Z,2.13
2023-05-18T23:30:51.916Z,3.00
2023-05-18T23:35:49.978Z,2.30
2023-05-18T23:40:47.474Z,2.70
2023-05-18T23:45:44.126Z,3.55
2023-05-18T23:50:41.437Z,2.70
2023-05-18T23:55:40.226Z,2.60
